Time;durP1;ratioP1;P1;durP2;ratioP2;P2;SDS_P1;SDS_P2;PMS_P1;PMS_P2;Temp;Humidity;BMP_temperature;BMP_pressure;BME280_temperature;BME280_humidity;BME280_pressure;Samples;Min_cycle;Max_cycle;Signal;HPM_P1;HPM_P2
2024/03/01 00:00:49;;;;;;;;;;;5.40;99.90;;;;;;4949566;28;19953;-79
2024/03/01 00:03:15;;;;;;;;;;;5.40;99.90;;;;;;4943017;28;20319;-79
2024/03/01 00:05:40;;;;;;;;;;;5.40;99.90;;;;;;4938291;28;20012;-79
2024/03/01 00:08:06;;;;;;;;;;;5.40;99.90;;;;;;4950196;28;19933;-79
2024/03/01 00:10:32;;;;;;;;;;;5.30;99.90;;;;;;4950907;28;19980;-79
2024/03/01 00:12:57;;;;;;;;;;;5.30;99.90;;;;;;4952984;28;19920;-79
2024/03/01 00:15:23;;;;;;;;;;;5.20;99.90;;;;;;4945237;28;19922;-79
2024/03/01 00:17:49;;;;;;;;;;;5.20;99.90;;;;;;4962943;28;20330;-80
2024/03/01 00:20:22;;;;;;;;;;;5.20;99.90;;;;;;4979350;28;19921;-80
2024/03/01 00:22:48;;;;;;;;;;;5.20;99.90;;;;;;4932346;29;20001;-80
2024/03/01 00:25:14;;;;;;;;;;;5.20;99.90;;;;;;4927554;28;20013;-79
2024/03/01 00:27:40;;;;;;;;;;;5.10;99.90;;;;;;4943758;28;19966;-79
2024/03/01 00:30:06;;;;;;;;;;;5.10;99.90;;;;;;4958660;28;19929;-79
2024/03/01 00:32:32;;;;;;;;;;;5.00;99.90;;;;;;4949067;28;19918;-80
2024/03/01 00:34:58;;;;;;;;;;;4.90;99.90;;;;;;4926701;28;20255;-80
2024/03/01 00:37:23;;;;;;;;;;;4.80;99.90;;;;;;4943962;28;19922;-79
2024/03/01 00:39:49;;;;;;;;;;;4.90;99.90;;;;;;4927178;28;20258;-79
2024/03/01 00:42:15;;;;;;;;;;;4.90;99.90;;;;;;4944698;28;19925;-79
2024/03/01 00:44:40;;;;;;;;;;;5.00;99.90;;;;;;4947218;28;19921;-79
2024/03/01 00:47:06;;;;;;;;;;;5.00;99.90;;;;;;4958577;28;19924;-79
2024/03/01 00:49:32;;;;;;;;;;;5.00;99.90;;;;;;4927382;28;19965;-79
2024/03/01 00:51:57;;;;;;;;;;;5.00;99.90;;;;;;4947347;28;20061;-80
2024/03/01 00:54:24;;;;;;;;;;;5.00;99.90;;;;;;4976153;28;19941;-80
2024/03/01 00:56:51;;;;;;;;;;;4.90;99.90;;;;;;4943754;28;19918;-80
2024/03/01 00:59:21;;;;;;;;;;;4.80;99.90;;;;;;4943485;28;20532;-81
2024/03/01 01:01:46;;;;;;;;;;;4.80;99.90;;;;;;4944062;28;19951;-80
2024/03/01 01:04:12;;;;;;;;;;;4.80;99.90;;;;;;4921007;28;19918;-80
2024/03/01 01:06:38;;;;;;;;;;;4.80;99.90;;;;;;4962528;28;19929;-80
2024/03/01 01:09:04;;;;;;;;;;;4.80;99.90;;;;;;4948430;28;19929;-80
2024/03/01 01:11:30;;;;;;;;;;;4.80;99.90;;;;;;4959408;28;19918;-80
2024/03/01 01:13:56;;;;;;;;;;;4.80;99.90;;;;;;4959361;28;19925;-80
2024/03/01 01:16:23;;;;;;;;;;;4.80;99.90;;;;;;4944126;28;20255;-80
2024/03/01 01:18:48;;;;;;;;;;;4.80;99.90;;;;;;4927625;28;19918;-79
2024/03/01 01:21:14;;;;;;;;;;;4.80;99.90;;;;;;4943473;28;19926;-79
2024/03/01 01:23:39;;;;;;;;;;;4.90;99.90;;;;;;4945259;28;19917;-79
2024/03/01 01:26:05;;;;;;;;;;;4.90;99.90;;;;;;4949760;28;20005;-80
2024/03/01 01:28:31;;;;;;;;;;;4.90;99.90;;;;;;4950810;28;19924;-80
2024/03/01 01:30:58;;;;;;;;;;;4.90;99.90;;;;;;4965585;28;19988;-80
2024/03/01 01:33:23;;;;;;;;;;;4.90;99.90;;;;;;4945329;28;19953;-81
2024/03/01 01:35:49;;;;;;;;;;;4.80;99.90;;;;;;4914632;29;19954;-80
2024/03/01 01:38:16;;;;;;;;;;;4.80;99.90;;;;;;4912158;29;19914;-81
2024/03/01 01:40:42;;;;;;;;;;;4.80;99.90;;;;;;4931708;28;20013;-80
2024/03/01 01:43:07;;;;;;;;;;;4.80;99.90;;;;;;4949682;28;19950;-81
2024/03/01 01:45:33;;;;;;;;;;;4.80;99.90;;;;;;4947075;28;19918;-81
2024/03/01 01:47:59;;;;;;;;;;;4.80;99.90;;;;;;4957860;28;20263;-81
2024/03/01 01:50:26;;;;;;;;;;;4.70;99.90;;;;;;4961990;28;19914;-81
2024/03/01 01:52:52;;;;;;;;;;;4.70;99.90;;;;;;4962112;28;20394;-81
2024/03/01 01:55:17;;;;;;;;;;;4.70;99.90;;;;;;4946472;28;20013;-81
2024/03/01 01:57:43;;;;;;;;;;;4.70;99.90;;;;;;4946830;28;20529;-80
2024/03/01 02:00:09;;;;;;;;;;;4.70;99.90;;;;;;4926875;28;19918;-81
2024/03/01 02:02:35;;;;;;;;;;;4.70;99.90;;;;;;4926751;29;19926;-80
2024/03/01 02:05:00;;;;;;;;;;;4.70;99.90;;;;;;4926950;29;19915;-80
2024/03/01 02:07:26;;;;;;;;;;;4.60;99.90;;;;;;4915558;28;19949;-80
2024/03/01 02:09:53;;;;;;;;;;;4.60;99.90;;;;;;4921463;29;20018;-80
2024/03/01 02:12:21;;;;;;;;;;;4.60;99.90;;;;;;4942779;29;20614;-80
2024/03/01 02:14:48;;;;;;;;;;;4.60;99.90;;;;;;4955547;28;19924;-81
2024/03/01 02:17:13;;;;;;;;;;;4.60;99.90;;;;;;4945721;28;20009;-80
2024/03/01 02:19:39;;;;;;;;;;;4.60;99.90;;;;;;4922480;28;19919;-80
2024/03/01 02:22:19;;;;;;;;;;;4.60;99.90;;;;;;4964744;28;20246;-81
2024/03/01 02:24:45;;;;;;;;;;;4.60;99.90;;;;;;4975333;28;19918;-81
2024/03/01 02:27:11;;;;;;;;;;;4.60;99.90;;;;;;4964955;28;19917;-81
2024/03/01 02:29:39;;;;;;;;;;;4.60;99.90;;;;;;4950517;28;19921;-81
2024/03/01 02:32:06;;;;;;;;;;;4.50;99.90;;;;;;4981756;28;20315;-81
2024/03/01 02:34:31;;;;;;;;;;;4.50;99.90;;;;;;4948991;28;19914;-81
2024/03/01 02:36:58;;;;;;;;;;;4.50;99.90;;;;;;4980356;28;19929;-81
2024/03/01 02:39:25;;;;;;;;;;;4.50;99.90;;;;;;4951407;28;19949;-80
2024/03/01 02:41:51;;;;;;;;;;;4.50;99.90;;;;;;4949269;28;19925;-80
2024/03/01 02:44:17;;;;;;;;;;;4.50;99.90;;;;;;4929998;28;19915;-80
2024/03/01 02:46:45;;;;;;;;;;;4.50;99.90;;;;;;4951320;28;19925;-80
2024/03/01 02:49:11;;;;;;;;;;;4.50;99.90;;;;;;4948182;28;20085;-80
2024/03/01 02:51:38;;;;;;;;;;;4.40;99.90;;;;;;4948271;28;20008;-81
2024/03/01 02:54:04;;;;;;;;;;;4.50;99.90;;;;;;4951258;28;19918;-80
2024/03/01 02:56:30;;;;;;;;;;;4.50;99.90;;;;;;4944949;28;19929;-80
2024/03/01 02:58:55;;;;;;;;;;;4.50;99.90;;;;;;4945207;28;19935;-80
2024/03/01 03:01:22;;;;;;;;;;;4.40;99.90;;;;;;4963345;28;19918;-81
2024/03/01 03:03:48;;;;;;;;;;;4.40;99.90;;;;;;4964670;28;19918;-81
2024/03/01 03:06:14;;;;;;;;;;;4.40;99.90;;;;;;4962761;28;20362;-81
2024/03/01 03:08:41;;;;;;;;;;;4.40;99.90;;;;;;4959589;28;19914;-81
2024/03/01 03:11:08;;;;;;;;;;;4.30;99.90;;;;;;4951479;28;20017;-81
2024/03/01 03:13:34;;;;;;;;;;;4.30;99.90;;;;;;4975232;28;19972;-81
2024/03/01 03:16:01;;;;;;;;;;;4.30;99.90;;;;;;4980016;28;20406;-81
2024/03/01 03:18:26;;;;;;;;;;;4.30;99.90;;;;;;4979052;28;20009;-81
2024/03/01 03:20:52;;;;;;;;;;;4.20;99.90;;;;;;4947807;28;20013;-81
2024/03/01 03:23:18;;;;;;;;;;;4.20;99.90;;;;;;4962968;28;19918;-81
2024/03/01 03:25:44;;;;;;;;;;;4.20;99.90;;;;;;4952095;28;19928;-80
2024/03/01 03:28:10;;;;;;;;;;;4.20;99.90;;;;;;4962525;28;20001;-80
2024/03/01 03:30:36;;;;;;;;;;;4.10;99.90;;;;;;4955510;29;20017;-80
2024/03/01 03:33:06;;;;;;;;;;;4.10;99.90;;;;;;4944854;28;20411;-80
2024/03/01 03:35:35;;;;;;;;;;;4.10;99.90;;;;;;4944441;28;19948;-80
2024/03/01 03:38:03;;;;;;;;;;;4.00;99.90;;;;;;4932534;28;19918;-80
2024/03/01 03:40:29;;;;;;;;;;;4.00;99.90;;;;;;4960748;28;19918;-80
2024/03/01 03:42:54;;;;;;;;;;;4.00;99.90;;;;;;4960830;28;19918;-80
2024/03/01 03:45:20;;;;;;;;;;;4.10;99.90;;;;;;4947361;28;19921;-81
2024/03/01 03:47:46;;;;;;;;;;;4.10;99.90;;;;;;4990647;28;19922;-80
2024/03/01 03:50:11;;;;;;;;;;;4.10;99.90;;;;;;4994929;28;19914;-79
2024/03/01 03:52:37;;;;;;;;;;;4.10;99.90;;;;;;4958410;28;19925;-80
2024/03/01 03:55:04;;;;;;;;;;;4.10;99.90;;;;;;4963395;28;19917;-80
2024/03/01 03:57:32;;;;;;;;;;;4.00;99.90;;;;;;4966910;28;19914;-81
2024/03/01 03:59:58;;;;;;;;;;;3.90;99.90;;;;;;4944382;28;19921;-80
2024/03/01 04:02:23;;;;;;;;;;;3.90;99.90;;;;;;4978613;28;19917;-80
2024/03/01 04:04:49;;;;;;;;;;;3.80;99.90;;;;;;4941030;29;19919;-80
2024/03/01 04:07:17;;;;;;;;;;;3.80;99.90;;;;;;4976776;28;19972;-81
2024/03/01 04:09:43;;;;;;;;;;;3.70;99.90;;;;;;4979307;28;19913;-80
2024/03/01 04:12:09;;;;;;;;;;;3.70;99.90;;;;;;4979216;28;19945;-80
2024/03/01 04:14:35;;;;;;;;;;;3.70;99.90;;;;;;4965373;28;19918;-80
2024/03/01 04:17:02;;;;;;;;;;;3.70;99.90;;;;;;4940356;29;19988;-80
2024/03/01 04:19:29;;;;;;;;;;;3.60;99.90;;;;;;4940324;29;19914;-80
2024/03/01 04:21:55;;;;;;;;;;;3.60;99.90;;;;;;4975414;28;19918;-80
2024/03/01 04:24:20;;;;;;;;;;;3.60;99.90;;;;;;4979650;28;20395;-80
2024/03/01 04:26:58;;;;;;;;;;;3.60;99.90;;;;;;4979054;28;19918;-80
2024/03/01 04:29:27;;;;;;;;;;;3.60;99.90;;;;;;4979516;28;19925;-80
2024/03/01 04:31:53;;;;;;;;;;;3.60;99.90;;;;;;4962441;28;19972;-80
2024/03/01 04:34:19;;;;;;;;;;;3.60;99.90;;;;;;4961565;28;20254;-80
2024/03/01 04:36:45;;;;;;;;;;;3.70;99.90;;;;;;4961190;28;19926;-80
2024/03/01 04:39:14;;;;;;;;;;;3.70;99.90;;;;;;4952620;28;19966;-80
2024/03/01 04:41:40;;;;;;;;;;;3.70;99.90;;;;;;4967626;28;20000;-80
2024/03/01 04:44:06;;;;;;;;;;;3.80;99.90;;;;;;4967695;28;19924;-80
2024/03/01 04:46:32;;;;;;;;;;;3.80;99.90;;;;;;4974890;28;19914;-80
2024/03/01 04:48:57;;;;;;;;;;;3.70;99.90;;;;;;4978087;28;19949;-80
2024/03/01 04:51:24;;;;;;;;;;;3.70;99.90;;;;;;4959148;28;19972;-80
2024/03/01 04:53:50;;;;;;;;;;;3.70;99.90;;;;;;4944075;28;19921;-80
2024/03/01 04:56:18;;;;;;;;;;;3.60;99.90;;;;;;4994246;28;19921;-80
2024/03/01 04:58:44;;;;;;;;;;;3.60;99.90;;;;;;4961615;28;19922;-80
2024/03/01 05:01:17;;;;;;;;;;;3.60;99.90;;;;;;4981568;28;19921;-80
2024/03/01 05:03:45;;;;;;;;;;;3.50;99.90;;;;;;4966299;28;19964;-80
2024/03/01 05:06:28;;;;;;;;;;;3.50;99.90;;;;;;4983133;28;19961;-80
2024/03/01 05:08:54;;;;;;;;;;;3.40;99.90;;;;;;4984475;28;19956;-80
2024/03/01 05:11:23;;;;;;;;;;;3.40;99.90;;;;;;4965994;28;20339;-80
2024/03/01 05:13:59;;;;;;;;;;;3.40;99.90;;;;;;4982042;28;20012;-80
2024/03/01 05:16:25;;;;;;;;;;;3.40;99.90;;;;;;4972610;28;19925;-80
2024/03/01 05:18:51;;;;;;;;;;;3.30;99.90;;;;;;4946902;28;20216;-81
2024/03/01 05:21:22;;;;;;;;;;;3.30;99.90;;;;;;4965509;28;19960;-80
2024/03/01 05:23:51;;;;;;;;;;;3.20;99.90;;;;;;4966133;28;19918;-80
2024/03/01 05:26:19;;;;;;;;;;;3.20;99.90;;;;;;4963038;28;20323;-80
2024/03/01 05:28:44;;;;;;;;;;;3.20;99.90;;;;;;4947272;28;19928;-80
2024/03/01 05:31:10;;;;;;;;;;;3.30;99.90;;;;;;4974232;28;19915;-80
2024/03/01 05:33:36;;;;;;;;;;;;;;;;;;4948118;28;19926;-80
2024/03/01 05:36:05;;;;;;;;;;;3.30;99.90;;;;;;4993631;28;20040;-80
2024/03/01 05:38:32;;;;;;;;;;;3.30;99.90;;;;;;4934198;28;19972;-80
2024/03/01 05:40:58;;;;;;;;;;;3.30;99.90;;;;;;4975272;28;20227;-80
2024/03/01 05:43:23;;;;;;;;;;;3.30;99.90;;;;;;4963946;28;19972;-80
2024/03/01 05:45:51;;;;;;;;;;;3.30;99.90;;;;;;4954271;28;19922;-80
2024/03/01 05:48:17;;;;;;;;;;;3.30;99.90;;;;;;4947054;28;20013;-80
2024/03/01 05:50:46;;;;;;;;;;;3.30;99.90;;;;;;4981487;28;19953;-80
2024/03/01 05:53:15;;;;;;;;;;;3.30;99.90;;;;;;4981557;28;20013;-80
2024/03/01 05:55:40;;;;;;;;;;;3.30;99.90;;;;;;4962641;28;19918;-80
2024/03/01 05:58:10;;;;;;;;;;;3.30;99.90;;;;;;4961946;28;20306;-80
2024/03/01 06:00:39;;;;;;;;;;;3.30;99.90;;;;;;4963898;28;19992;-81
2024/03/01 06:03:06;;;;;;;;;;;3.30;99.90;;;;;;4951960;28;19937;-80
2024/03/01 06:05:32;;;;;;;;;;;3.30;99.90;;;;;;4962814;28;19914;-81
2024/03/01 06:08:05;;;;;;;;;;;3.20;99.90;;;;;;4975810;28;19920;-80
2024/03/01 06:10:31;;;;;;;;;;;3.20;99.90;;;;;;4980196;28;19914;-79
2024/03/01 06:12:58;;;;;;;;;;;3.20;99.90;;;;;;4963236;28;19924;-78
2024/03/01 06:15:27;;;;;;;;;;;3.20;99.90;;;;;;4994079;28;19922;-80
2024/03/01 06:17:58;;;;;;;;;;;3.30;99.90;;;;;;4973530;28;19921;-79
2024/03/01 06:20:23;;;;;;;;;;;3.30;99.90;;;;;;4976613;28;20071;-79
2024/03/01 06:22:50;;;;;;;;;;;3.30;99.90;;;;;;4969235;28;20361;-80
2024/03/01 06:25:16;;;;;;;;;;;3.30;99.90;;;;;;4940005;29;20625;-79
2024/03/01 06:27:42;;;;;;;;;;;3.20;99.90;;;;;;4940711;29;19930;-79
2024/03/01 06:30:08;;;;;;;;;;;3.30;99.90;;;;;;4950925;28;19922;-78
2024/03/01 06:32:35;;;;;;;;;;;3.30;99.90;;;;;;4925356;29;19932;-78
2024/03/01 06:35:01;;;;;;;;;;;3.40;99.90;;;;;;4928136;29;19934;-79
2024/03/01 06:37:27;;;;;;;;;;;3.40;99.90;;;;;;4924495;29;19923;-79
2024/03/01 06:39:53;;;;;;;;;;;3.50;99.90;;;;;;4924910;29;19924;-79
2024/03/01 06:42:18;;;;;;;;;;;3.50;99.90;;;;;;4940880;28;19919;-78
2024/03/01 06:44:44;;;;;;;;;;;3.50;99.90;;;;;;4957337;28;19964;-78
2024/03/01 06:47:10;;;;;;;;;;;3.60;99.90;;;;;;4996537;28;19949;-79
2024/03/01 06:49:36;;;;;;;;;;;3.60;99.90;;;;;;4979259;28;19987;-79
2024/03/01 06:52:02;;;;;;;;;;;3.60;99.90;;;;;;4950228;28;19928;-79
2024/03/01 06:54:27;;;;;;;;;;;3.60;99.90;;;;;;4951783;28;20416;-79
2024/03/01 06:56:53;;;;;;;;;;;3.60;99.90;;;;;;4940837;29;19918;-79
2024/03/01 06:59:19;;;;;;;;;;;3.60;99.90;;;;;;4916572;28;20354;-78
2024/03/01 07:01:45;;;;;;;;;;;3.60;99.90;;;;;;4927422;28;19918;-79
2024/03/01 07:04:10;;;;;;;;;;;3.60;99.90;;;;;;4949599;28;19968;-79
2024/03/01 07:06:40;;;;;;;;;;;3.60;99.90;;;;;;4956479;28;20017;-79
2024/03/01 07:09:06;;;;;;;;;;;3.60;99.90;;;;;;4940257;29;19965;-79
2024/03/01 07:11:33;;;;;;;;;;;3.60;99.90;;;;;;4972906;28;19949;-79
2024/03/01 07:14:00;;;;;;;;;;;3.70;99.90;;;;;;4959773;28;20564;-79
2024/03/01 07:16:28;;;;;;;;;;;3.70;99.90;;;;;;4976666;28;19918;-78
2024/03/01 07:18:54;;;;;;;;;;;3.80;99.90;;;;;;4975853;28;19921;-78
2024/03/01 07:21:21;;;;;;;;;;;3.80;99.90;;;;;;4959291;28;19997;-77
2024/03/01 07:23:47;;;;;;;;;;;3.90;99.90;;;;;;4943385;28;19922;-78
2024/03/01 07:26:13;;;;;;;;;;;3.90;99.90;;;;;;4959546;28;20312;-78
2024/03/01 07:28:38;;;;;;;;;;;3.90;99.90;;;;;;4932542;29;20208;-79
2024/03/01 07:31:05;;;;;;;;;;;4.00;99.90;;;;;;4924499;29;19918;-78
2024/03/01 07:33:31;;;;;;;;;;;4.00;99.90;;;;;;4925945;28;19921;-79
2024/03/01 07:35:57;;;;;;;;;;;4.20;99.90;;;;;;4943580;28;19922;-79
2024/03/01 07:38:22;;;;;;;;;;;4.20;99.90;;;;;;4943511;28;20327;-79
2024/03/01 07:40:48;;;;;;;;;;;4.30;99.90;;;;;;4943439;28;19918;-79
2024/03/01 07:43:14;;;;;;;;;;;4.40;99.90;;;;;;4952462;29;19919;-78
2024/03/01 07:45:39;;;;;;;;;;;4.40;99.90;;;;;;4957321;28;20110;-79
2024/03/01 07:48:05;;;;;;;;;;;4.40;99.90;;;;;;4943451;28;20009;-79
2024/03/01 07:50:31;;;;;;;;;;;4.50;99.90;;;;;;4976020;28;19976;-78
2024/03/01 07:52:58;;;;;;;;;;;4.60;99.90;;;;;;4962095;28;19928;-79
2024/03/01 07:55:24;;;;;;;;;;;4.70;99.90;;;;;;4949205;28;19937;-79
2024/03/01 07:57:51;;;;;;;;;;;4.70;99.90;;;;;;4959062;28;19925;-79
2024/03/01 08:00:17;;;;;;;;;;;4.80;99.90;;;;;;4975114;28;19914;-79
2024/03/01 08:02:43;;;;;;;;;;;4.90;99.90;;;;;;4959051;28;19914;-78
2024/03/01 08:05:11;;;;;;;;;;;5.00;99.90;;;;;;4942979;28;19973;-79
2024/03/01 08:07:37;;;;;;;;;;;5.10;99.90;;;;;;4942669;28;19922;-78
2024/03/01 08:10:03;;;;;;;;;;;5.20;99.90;;;;;;4947136;28;19914;-80
2024/03/01 08:12:29;;;;;;;;;;;5.30;99.90;;;;;;4948352;28;19925;-80
2024/03/01 08:14:55;;;;;;;;;;;5.40;99.90;;;;;;4926666;29;19919;-80
2024/03/01 08:17:20;;;;;;;;;;;5.50;99.90;;;;;;4936475;28;19995;-80
2024/03/01 08:19:52;;;;;;;;;;;5.70;99.90;;;;;;4944380;28;20006;-80
2024/03/01 08:22:24;;;;;;;;;;;5.80;99.90;;;;;;4944189;28;19918;-80
2024/03/01 08:24:49;;;;;;;;;;;5.90;99.90;;;;;;4941640;28;19918;-80
2024/03/01 08:27:17;;;;;;;;;;;6.10;99.90;;;;;;4947788;28;20345;-80
2024/03/01 08:29:43;;;;;;;;;;;6.20;99.90;;;;;;4961186;28;19922;-80
2024/03/01 08:32:22;;;;;;;;;;;6.30;99.90;;;;;;4956341;29;20219;-80
2024/03/01 08:34:51;;;;;;;;;;;6.40;99.90;;;;;;4926548;29;19918;-80
2024/03/01 08:37:43;;;;;;;;;;;6.50;99.90;;;;;;4929843;29;19915;-80
2024/03/01 08:40:21;;;;;;;;;;;6.50;99.90;;;;;;4940715;29;19970;-80
2024/03/01 08:42:48;;;;;;;;;;;6.60;99.90;;;;;;4943897;29;19918;-79
2024/03/01 08:45:34;;;;;;;;;;;6.70;99.90;;;;;;4932592;28;19981;-80
2024/03/01 08:48:06;;;;;;;;;;;6.80;99.90;;;;;;4933996;28;19914;-80
2024/03/01 08:50:36;;;;;;;;;;;6.80;99.90;;;;;;4947434;28;19942;-79
2024/03/01 08:53:12;;;;;;;;;;;7.00;99.90;;;;;;4939183;28;19918;-79
2024/03/01 08:55:42;;;;;;;;;;;7.00;99.90;;;;;;4979337;28;19918;-80
2024/03/01 08:58:11;;;;;;;;;;;7.10;99.90;;;;;;4934851;28;19961;-80
2024/03/01 09:00:47;;;;;;;;;;;7.20;99.90;;;;;;4931057;28;19918;-80
2024/03/01 09:03:18;;;;;;;;;;;7.30;99.90;;;;;;4929840;28;19922;-80
2024/03/01 09:05:44;;;;;;;;;;;7.40;99.90;;;;;;4945843;28;19926;-79
2024/03/01 09:08:12;;;;;;;;;;;7.40;99.90;;;;;;4927771;28;19985;-79
2024/03/01 09:10:39;;;;;;;;;;;7.50;99.90;;;;;;4942573;29;20629;-80
2024/03/01 09:13:06;;;;;;;;;;;7.60;99.90;;;;;;4943251;29;20296;-80
2024/03/01 09:15:42;;;;;;;;;;;7.70;99.90;;;;;;4930289;28;19949;-80
2024/03/01 09:18:27;;;;;;;;;;;7.80;99.90;;;;;;4944245;28;19919;-80
2024/03/01 09:20:54;;;;;;;;;;;7.80;99.90;;;;;;4961903;28;19914;-80
2024/03/01 09:23:19;;;;;;;;;;;7.80;99.90;;;;;;4975452;28;19918;-79
2024/03/01 09:25:51;;;;;;;;;;;7.90;99.90;;;;;;4990809;28;19984;-79
2024/03/01 09:28:17;;;;;;;;;;;7.90;99.90;;;;;;4968620;28;20017;-80
2024/03/01 09:30:46;;;;;;;;;;;8.00;99.90;;;;;;4981888;28;19913;-80
2024/03/01 09:33:13;;;;;;;;;;;8.00;99.90;;;;;;4948863;28;19914;-80
2024/03/01 09:35:38;;;;;;;;;;;8.10;99.90;;;;;;4957148;28;19969;-79
2024/03/01 09:38:07;;;;;;;;;;;8.10;99.90;;;;;;4969343;28;19972;-80
2024/03/01 09:40:49;;;;;;;;;;;8.20;99.90;;;;;;4964127;28;20280;-79
2024/03/01 09:43:18;;;;;;;;;;;8.20;99.90;;;;;;4965109;28;19925;-78
2024/03/01 09:45:47;;;;;;;;;;;8.50;99.90;;;;;;4963897;28;19945;-78
2024/03/01 09:48:31;;;;;;;;;;;8.60;99.90;;;;;;4975618;28;19915;-79
2024/03/01 09:51:12;;;;;;;;;;;8.70;99.90;;;;;;4945274;28;19924;-78
2024/03/01 09:54:14;;;;;;;;;;;8.80;99.90;;;;;;4947094;28;19914;-79
2024/03/01 09:56:58;;;;;;;;;;;9.00;99.90;;;;;;4868142;29;20389;-79
2024/03/01 09:59:31;;;;;;;;;;;9.10;99.90;;;;;;4894238;29;19963;-78
2024/03/01 10:01:59;;;;;;;;;;;9.30;99.90;;;;;;4865102;29;20344;-78
2024/03/01 10:04:28;;;;;;;;;;;9.50;99.90;;;;;;4897360;28;20017;-79
2024/03/01 10:06:57;;;;;;;;;;;9.60;99.90;;;;;;4961177;28;20386;-79
2024/03/01 10:09:23;;;;;;;;;;;9.80;99.90;;;;;;4974385;28;19956;-79
2024/03/01 10:11:49;;;;;;;;;;;10.00;99.90;;;;;;4992681;28;20622;-78
2024/03/01 10:14:14;;;;;;;;;;;10.10;99.90;;;;;;4998070;28;20258;-79
2024/03/01 10:16:50;;;;;;;;;;;10.20;99.90;;;;;;4980719;28;20326;-78
2024/03/01 10:19:35;;;;;;;;;;;10.30;99.90;;;;;;4986504;28;20410;-79
2024/03/01 10:22:17;;;;;;;;;;;10.40;99.90;;;;;;4979983;28;19953;-79
2024/03/01 10:24:50;;;;;;;;;;;10.40;99.90;;;;;;4963654;28;20354;-79
2024/03/01 10:27:28;;;;;;;;;;;10.50;99.90;;;;;;4963309;28;19921;-79
2024/03/01 10:30:10;;;;;;;;;;;10.60;99.90;;;;;;4972618;28;19925;-79
2024/03/01 10:32:38;;;;;;;;;;;10.60;99.90;;;;;;4979252;28;19969;-78
2024/03/01 10:35:09;;;;;;;;;;;10.70;99.90;;;;;;4949217;28;19976;-78
2024/03/01 10:37:40;;;;;;;;;;;10.80;99.90;;;;;;4963807;28;20024;-79
2024/03/01 10:40:12;;;;;;;;;;;11.00;99.90;;;;;;4996610;28;19925;-78
2024/03/01 10:42:42;;;;;;;;;;;11.30;99.90;;;;;;4976134;28;19918;-78
2024/03/01 10:45:12;;;;;;;;;;;11.60;99.90;;;;;;4963892;28;19914;-78
2024/03/01 10:47:38;;;;;;;;;;;11.70;99.90;;;;;;4948246;28;19924;-78
2024/03/01 10:50:07;;;;;;;;;;;11.80;99.90;;;;;;4980349;28;20012;-78
2024/03/01 10:52:33;;;;;;;;;;;12.10;99.90;;;;;;4963557;28;20302;-78
2024/03/01 10:54:59;;;;;;;;;;;12.30;99.90;;;;;;4947513;28;20020;-79
2024/03/01 10:57:24;;;;;;;;;;;12.50;99.90;;;;;;4978869;28;20378;-78
2024/03/01 11:00:06;;;;;;;;;;;12.70;99.90;;;;;;4963043;28;20025;-78
2024/03/01 11:02:36;;;;;;;;;;;12.90;99.90;;;;;;4963518;28;19952;-78
2024/03/01 11:05:04;;;;;;;;;;;13.20;99.90;;;;;;4963552;28;20385;-78
2024/03/01 11:07:42;;;;;;;;;;;13.40;99.90;;;;;;4943796;28;20407;-78
2024/03/01 11:10:12;;;;;;;;;;;13.70;99.90;;;;;;4981702;28;19968;-78
2024/03/01 11:12:52;;;;;;;;;;;14.10;99.90;;;;;;4947320;28;19917;-78
2024/03/01 11:15:20;;;;;;;;;;;14.30;99.90;;;;;;4962534;28;20262;-78
2024/03/01 11:17:48;;;;;;;;;;;14.50;99.90;;;;;;4959070;28;20366;-79
2024/03/01 11:20:22;;;;;;;;;;;14.80;99.90;;;;;;4970708;28;19928;-79
2024/03/01 11:22:50;;;;;;;;;;;15.10;99.90;;;;;;4964642;28;20531;-80
2024/03/01 11:25:19;;;;;;;;;;;15.40;99.90;;;;;;4979000;28;19926;-80
2024/03/01 11:27:48;;;;;;;;;;;15.50;99.90;;;;;;4978330;28;19922;-79
2024/03/01 11:30:14;;;;;;;;;;;15.70;99.90;;;;;;4961534;28;20296;-80
2024/03/01 11:32:41;;;;;;;;;;;15.70;99.90;;;;;;4961662;28;19922;-80
2024/03/01 11:35:28;;;;;;;;;;;15.50;99.90;;;;;;4973093;28;19983;-79
2024/03/01 11:38:00;;;;;;;;;;;15.20;99.90;;;;;;4995791;28;19917;-79
2024/03/01 11:40:36;;;;;;;;;;;15.00;99.90;;;;;;4964583;28;19914;-79
2024/03/01 11:43:20;;;;;;;;;;;14.70;99.90;;;;;;4959983;28;20622;-78
2024/03/01 11:45:58;;;;;;;;;;;14.60;99.90;;;;;;4977640;28;19914;-79
2024/03/01 11:48:27;;;;;;;;;;;14.40;99.90;;;;;;4962933;28;19924;-79
2024/03/01 11:50:52;;;;;;;;;;;14.20;99.90;;;;;;4994916;28;19914;-78
2024/03/01 11:53:21;;;;;;;;;;;14.10;99.90;;;;;;4982731;28;20000;-79
2024/03/01 11:55:50;;;;;;;;;;;14.00;99.90;;;;;;4965443;28;19922;-79
2024/03/01 11:58:34;;;;;;;;;;;14.00;99.90;;;;;;4976721;28;19928;-78
2024/03/01 12:00:59;;;;;;;;;;;13.70;99.90;;;;;;4979838;28;19914;-78
2024/03/01 12:03:44;;;;;;;;;;;13.80;99.90;;;;;;4970518;28;19914;-79
2024/03/01 12:06:10;;;;;;;;;;;13.90;99.90;;;;;;4972163;28;19982;-78
2024/03/01 12:08:36;;;;;;;;;;;14.10;99.90;;;;;;4961346;28;19914;-78
2024/03/01 12:11:14;;;;;;;;;;;14.20;99.90;;;;;;5001506;28;19924;-79
2024/03/01 12:13:41;;;;;;;;;;;14.40;99.90;;;;;;4959641;28;19949;-79
2024/03/01 12:16:08;;;;;;;;;;;14.40;99.90;;;;;;4968752;28;19968;-78
2024/03/01 12:18:45;;;;;;;;;;;14.40;99.90;;;;;;4963111;28;19963;-79
2024/03/01 12:21:16;;;;;;;;;;;14.20;99.90;;;;;;4979890;28;19914;-79
2024/03/01 12:23:50;;;;;;;;;;;14.10;99.90;;;;;;4974953;28;20339;-79
2024/03/01 12:26:16;;;;;;;;;;;14.00;99.90;;;;;;4955658;28;19918;-78
2024/03/01 12:28:51;;;;;;;;;;;13.90;99.90;;;;;;4927391;28;19925;-78
2024/03/01 12:31:23;;;;;;;;;;;13.80;99.90;;;;;;4943574;28;20432;-79
2024/03/01 12:34:08;;;;;;;;;;;13.80;99.90;;;;;;4958365;28;19997;-78
2024/03/01 12:36:42;;;;;;;;;;;13.90;99.90;;;;;;4979122;28;20563;-78
2024/03/01 12:39:09;;;;;;;;;;;13.80;99.90;;;;;;4973416;28;19914;-79
2024/03/01 12:41:41;;;;;;;;;;;14.00;99.90;;;;;;4927651;28;19976;-79
2024/03/01 12:44:17;;;;;;;;;;;14.40;99.90;;;;;;4959903;28;19922;-78
2024/03/01 12:46:46;;;;;;;;;;;14.50;99.90;;;;;;4975948;28;20039;-79
2024/03/01 12:49:27;;;;;;;;;;;14.70;99.90;;;;;;4959610;28;19914;-79
2024/03/01 12:51:57;;;;;;;;;;;15.00;99.90;;;;;;4975954;28;19962;-79
2024/03/01 12:54:25;;;;;;;;;;;14.90;99.90;;;;;;4959072;28;20499;-78
2024/03/01 12:57:09;;;;;;;;;;;14.80;99.90;;;;;;4941378;28;20015;-79
2024/03/01 12:59:57;;;;;;;;;;;14.60;99.90;;;;;;4958787;28;19918;-79
2024/03/01 13:02:36;;;;;;;;;;;14.70;99.90;;;;;;4916150;29;20687;-79
2024/03/01 13:05:21;;;;;;;;;;;14.60;99.90;;;;;;4962516;28;19961;-78
2024/03/01 13:07:48;;;;;;;;;;;15.10;99.90;;;;;;4959089;28;19928;-79
2024/03/01 13:10:13;;;;;;;;;;;15.30;99.90;;;;;;4942439;28;19921;-80
2024/03/01 13:12:48;;;;;;;;;;;15.10;99.90;;;;;;4941165;28;20000;-77
2024/03/01 13:15:16;;;;;;;;;;;15.40;99.90;;;;;;4937827;28;20336;-79
2024/03/01 13:17:51;;;;;;;;;;;15.80;99.90;;;;;;4958185;28;19918;-78
2024/03/01 13:20:39;;;;;;;;;;;16.00;99.90;;;;;;4954876;28;19918;-78
2024/03/01 13:23:07;;;;;;;;;;;16.20;99.90;;;;;;4967514;28;20251;-77
2024/03/01 13:25:54;;;;;;;;;;;16.10;99.90;;;;;;4961037;28;20461;-76
2024/03/01 13:28:23;;;;;;;;;;;16.00;99.90;;;;;;4967884;28;19918;-79
2024/03/01 13:30:49;;;;;;;;;;;16.40;99.90;;;;;;4981125;28;19928;-78
2024/03/01 13:33:26;;;;;;;;;;;16.10;99.90;;;;;;4960853;28;19918;-78
2024/03/01 13:35:52;;;;;;;;;;;16.00;99.90;;;;;;4944959;28;19921;-77
2024/03/01 13:38:28;;;;;;;;;;;16.10;99.90;;;;;;4962104;28;19952;-77
2024/03/01 13:40:56;;;;;;;;;;;16.20;99.90;;;;;;4970259;28;20282;-77
2024/03/01 13:43:34;;;;;;;;;;;16.10;99.90;;;;;;4977696;28;20012;-77
2024/03/01 13:46:03;;;;;;;;;;;16.20;99.90;;;;;;4931965;28;20335;-77
2024/03/01 13:48:30;;;;;;;;;;;15.90;99.90;;;;;;4962399;28;19949;-77
2024/03/01 13:50:55;;;;;;;;;;;15.50;99.90;;;;;;4955789;28;19914;-77
2024/03/01 13:53:21;;;;;;;;;;;15.40;99.90;;;;;;4966659;28;19918;-77
2024/03/01 13:55:53;;;;;;;;;;;15.00;99.90;;;;;;4979034;28;19922;-77
2024/03/01 13:58:21;;;;;;;;;;;14.70;99.90;;;;;;4963643;28;19961;-77
2024/03/01 14:00:49;;;;;;;;;;;14.50;99.90;;;;;;4980956;28;19914;-77
2024/03/01 14:03:16;;;;;;;;;;;14.30;99.90;;;;;;4996078;28;19960;-77
2024/03/01 14:05:42;;;;;;;;;;;14.00;99.90;;;;;;4967695;28;19914;-76
2024/03/01 14:08:08;;;;;;;;;;;13.80;99.90;;;;;;4946457;28;19929;-78
2024/03/01 14:10:36;;;;;;;;;;;13.60;99.90;;;;;;4961024;28;20064;-79
2024/03/01 14:13:02;;;;;;;;;;;13.50;99.90;;;;;;4980092;28;20024;-77
2024/03/01 14:15:28;;;;;;;;;;;13.50;99.90;;;;;;4974939;28;19918;-77
2024/03/01 14:17:54;;;;;;;;;;;13.30;99.90;;;;;;4963152;28;19928;-77
2024/03/01 14:20:20;;;;;;;;;;;13.20;99.90;;;;;;4929735;28;19925;-79
2024/03/01 14:22:46;;;;;;;;;;;13.20;99.90;;;;;;4963366;28;20339;-79
2024/03/01 14:25:15;;;;;;;;;;;13.00;99.90;;;;;;4997558;28;19980;-79
2024/03/01 14:27:51;;;;;;;;;;;13.00;99.90;;;;;;4990039;28;19925;-78
2024/03/01 14:30:18;;;;;;;;;;;13.00;99.90;;;;;;4963891;28;19922;-78
2024/03/01 14:32:43;;;;;;;;;;;12.90;99.90;;;;;;4980368;28;20004;-79
2024/03/01 14:35:18;;;;;;;;;;;12.80;99.90;;;;;;4997662;28;20013;-79